AXB2617 VOBL-VAPO
Flight info
| Callsign | AXB2617 |
|---|---|
| Flight time | 0h 48m |
| Altitude | 36000 |
| Route | VAGPU7B VAGPU Q8 AGELA W56 AVKOR W67 PPN |
| Aircraft | B738/M-SDE2E3FGHIRWXY/LB1 |
Departure
| Time | 2026-04-28 18:21 |
|---|---|
| Airport | Kempegowda International Airport Bengaluru (VOBL) |
Arrival
| Time | 2026-04-28 19:09 |
|---|---|
| Airport | Pune International Airport (VAPO) |
| Time | Latitude | Longitude | Altitude | Speed | Heading |
|---|---|---|---|---|---|
| 2026-04-28 18:05 | 13.19930 | 77.72027 | 2958 ft | 0 kts | 264° |
| 2026-04-28 18:14 | 13.19931 | 77.72036 | 2958 ft | 2 kts | 264° |
| 2026-04-28 18:14 | 13.19932 | 77.72051 | 2957 ft | 2 kts | 265° |
| 2026-04-28 18:14 | 13.19934 | 77.72066 | 2957 ft | 2 kts | 264° |
| 2026-04-28 18:15 | 13.19935 | 77.72082 | 2956 ft | 2 kts | 265° |
| 2026-04-28 18:15 | 13.19934 | 77.72097 | 2956 ft | 2 kts | 304° |
| 2026-04-28 18:15 | 13.19922 | 77.72107 | 2956 ft | 2 kts | 343° |
| 2026-04-28 18:15 | 13.19915 | 77.72109 | 2956 ft | 1 kts | 5° |
| 2026-04-28 18:16 | 13.19909 | 77.72109 | 2957 ft | 0 kts | 360° |
| 2026-04-28 18:18 | 13.19918 | 77.72109 | 2956 ft | 5 kts | 2° |
| 2026-04-28 18:18 | 13.19998 | 77.72111 | 2952 ft | 17 kts | 360° |
| 2026-04-28 18:18 | 13.20095 | 77.72111 | 2949 ft | 23 kts | 360° |
| 2026-04-28 18:19 | 13.20325 | 77.72111 | 2945 ft | 25 kts | 0° |
| 2026-04-28 18:19 | 13.20472 | 77.72112 | 2939 ft | 13 kts | 3° |
| 2026-04-28 18:19 | 13.20521 | 77.72180 | 2936 ft | 14 kts | 96° |
| 2026-04-28 18:19 | 13.20546 | 77.72281 | 2934 ft | 16 kts | 17° |
| 2026-04-28 18:20 | 13.20656 | 77.72274 | 2930 ft | 12 kts | 352° |
| 2026-04-28 18:20 | 13.20685 | 77.72217 | 2929 ft | 13 kts | 271° |
| 2026-04-28 18:20 | 13.20689 | 77.71897 | 2931 ft | 78 kts | 270° |
| 2026-04-28 18:20 | 13.20693 | 77.71123 | 2940 ft | 136 kts | 271° |
| 2026-04-28 18:21 | 13.20703 | 77.69997 | 3046 ft | 173 kts | 271° |
| 2026-04-28 18:21 | 13.20728 | 77.68795 | 3654 ft | 173 kts | 274° |
| 2026-04-28 18:21 | 13.21076 | 77.67600 | 4108 ft | 181 kts | 302° |
| 2026-04-28 18:21 | 13.21855 | 77.66526 | 4458 ft | 195 kts | 308° |
| 2026-04-28 18:22 | 13.22658 | 77.65363 | 4779 ft | 211 kts | 304° |
| 2026-04-28 18:22 | 13.23606 | 77.64109 | 5088 ft | 231 kts | 323° |
| 2026-04-28 18:22 | 13.25110 | 77.63381 | 5462 ft | 246 kts | 347° |
| 2026-04-28 18:22 | 13.26808 | 77.62950 | 5869 ft | 262 kts | 347° |
| 2026-04-28 18:23 | 13.28630 | 77.62382 | 6300 ft | 278 kts | 343° |
| 2026-04-28 18:23 | 13.30455 | 77.61690 | 6938 ft | 284 kts | 341° |
| 2026-04-28 18:23 | 13.32284 | 77.60941 | 7654 ft | 287 kts | 340° |
| 2026-04-28 18:23 | 13.34138 | 77.60172 | 8435 ft | 287 kts | 340° |
| 2026-04-28 18:24 | 13.35984 | 77.59412 | 9211 ft | 289 kts | 341° |
| 2026-04-28 18:24 | 13.37244 | 77.58897 | 9664 ft | 293 kts | 341° |
| 2026-04-28 18:24 | 13.39877 | 77.57831 | 10263 ft | 315 kts | 341° |
| 2026-04-28 18:24 | 13.41914 | 77.57006 | 11099 ft | 315 kts | 341° |
| 2026-04-28 18:25 | 13.43982 | 77.56168 | 11608 ft | 329 kts | 341° |
| 2026-04-28 18:25 | 13.46131 | 77.55299 | 12254 ft | 338 kts | 341° |
| 2026-04-28 18:25 | 13.48338 | 77.54403 | 12956 ft | 344 kts | 341° |
| 2026-04-28 18:26 | 13.52868 | 77.52562 | 13756 ft | 348 kts | 341° |
| 2026-04-28 18:26 | 13.55141 | 77.51633 | 14027 ft | 358 kts | 340° |
| 2026-04-28 18:26 | 13.57425 | 77.50700 | 14990 ft | 355 kts | 340° |
| 2026-04-28 18:26 | 13.59711 | 77.49768 | 15788 ft | 357 kts | 340° |
| 2026-04-28 18:27 | 13.62028 | 77.48827 | 16542 ft | 360 kts | 340° |
| 2026-04-28 18:27 | 13.64398 | 77.47863 | 17257 ft | 364 kts | 339° |
| 2026-04-28 18:27 | 13.66758 | 77.46903 | 17950 ft | 368 kts | 339° |
| 2026-04-28 18:27 | 13.69150 | 77.45930 | 18565 ft | 373 kts | 339° |
| 2026-04-28 18:28 | 13.71562 | 77.44947 | 19222 ft | 377 kts | 338° |
| 2026-04-28 18:28 | 13.74014 | 77.43950 | 19823 ft | 382 kts | 338° |
| 2026-04-28 18:28 | 13.76527 | 77.42928 | 20402 ft | 387 kts | 338° |
| 2026-04-28 18:28 | 13.79029 | 77.41911 | 20992 ft | 391 kts | 338° |
| 2026-04-28 18:29 | 13.81582 | 77.40874 | 21544 ft | 396 kts | 338° |
| 2026-04-28 18:29 | 13.84166 | 77.39823 | 22088 ft | 401 kts | 338° |
| 2026-04-28 18:29 | 13.86761 | 77.38768 | 22674 ft | 404 kts | 338° |
| 2026-04-28 18:29 | 13.89405 | 77.37692 | 23359 ft | 404 kts | 337° |
| 2026-04-28 18:30 | 13.91995 | 77.36637 | 23948 ft | 406 kts | 337° |
| 2026-04-28 18:30 | 13.92898 | 77.36269 | 24201 ft | 405 kts | 337° |
| 2026-04-28 18:30 | 13.97143 | 77.34541 | 25810 ft | 388 kts | 336° |
| 2026-04-28 18:30 | 13.99642 | 77.33522 | 26496 ft | 386 kts | 336° |
| 2026-04-28 18:31 | 14.02171 | 77.32488 | 26667 ft | 398 kts | 336° |
| 2026-04-28 18:31 | 14.04805 | 77.31410 | 26872 ft | 408 kts | 336° |
| 2026-04-28 18:31 | 14.07434 | 77.30334 | 27249 ft | 413 kts | 336° |
| 2026-04-28 18:31 | 14.10118 | 77.29236 | 27736 ft | 415 kts | 335° |
| 2026-04-28 18:32 | 14.12800 | 77.28140 | 28285 ft | 415 kts | 335° |
| 2026-04-28 18:32 | 14.15527 | 77.27024 | 28718 ft | 418 kts | 335° |
| 2026-04-28 18:32 | 14.18212 | 77.25925 | 29140 ft | 421 kts | 335° |
| 2026-04-28 18:32 | 14.20962 | 77.24802 | 29656 ft | 421 kts | 335° |
| 2026-04-28 18:33 | 14.23683 | 77.23688 | 29988 ft | 426 kts | 335° |
| 2026-04-28 18:33 | 14.26474 | 77.22546 | 30372 ft | 429 kts | 335° |
| 2026-04-28 18:33 | 14.29252 | 77.21410 | 30750 ft | 433 kts | 335° |
| 2026-04-28 18:33 | 14.32071 | 77.20258 | 31203 ft | 434 kts | 335° |
| 2026-04-28 18:34 | 14.34862 | 77.19117 | 31768 ft | 431 kts | 335° |
| 2026-04-28 18:34 | 14.37609 | 77.17996 | 32434 ft | 426 kts | 335° |
| 2026-04-28 18:34 | 14.40384 | 77.16862 | 32988 ft | 425 kts | 334° |
| 2026-04-28 18:34 | 14.43146 | 77.15732 | 33307 ft | 429 kts | 334° |
| 2026-04-28 18:35 | 14.45933 | 77.14590 | 33570 ft | 433 kts | 334° |
| 2026-04-28 18:35 | 14.48745 | 77.13438 | 33803 ft | 437 kts | 334° |
| 2026-04-28 18:35 | 14.51623 | 77.12256 | 33905 ft | 440 kts | 334° |
| 2026-04-28 18:36 | 14.57256 | 77.09911 | 33897 ft | 432 kts | 330° |
| 2026-04-28 18:36 | 14.62168 | 77.06392 | 33897 ft | 427 kts | 315° |
| 2026-04-28 18:37 | 14.66465 | 77.02234 | 33891 ft | 424 kts | 313° |
| 2026-04-28 18:37 | 14.70789 | 76.98035 | 33884 ft | 425 kts | 314° |
| 2026-04-28 18:38 | 14.75182 | 76.93967 | 33886 ft | 422 kts | 315° |
| 2026-04-28 18:38 | 14.79627 | 76.89971 | 33890 ft | 425 kts | 316° |
| 2026-04-28 18:39 | 14.84101 | 76.85996 | 33898 ft | 426 kts | 316° |
| 2026-04-28 18:39 | 14.88619 | 76.81997 | 33898 ft | 425 kts | 316° |
| 2026-04-28 18:40 | 14.93098 | 76.78025 | 33897 ft | 426 kts | 316° |
| 2026-04-28 18:40 | 14.97605 | 76.74025 | 33898 ft | 426 kts | 315° |
| 2026-04-28 18:41 | 15.02106 | 76.70023 | 33896 ft | 425 kts | 315° |
| 2026-04-28 18:41 | 15.10169 | 76.62851 | 33892 ft | 426 kts | 316° |
| 2026-04-28 18:42 | 15.19158 | 76.54857 | 33894 ft | 424 kts | 316° |
| 2026-04-28 18:42 | 15.28115 | 76.46876 | 33897 ft | 424 kts | 315° |
| 2026-04-28 18:43 | 15.42759 | 76.33809 | 33894 ft | 422 kts | 315° |
| 2026-04-28 18:43 | 15.60538 | 76.17915 | 33915 ft | 421 kts | 315° |
| 2026-04-28 18:44 | 15.78283 | 76.02007 | 33948 ft | 420 kts | 315° |
| 2026-04-28 18:44 | 16.04876 | 75.78097 | 33922 ft | 418 kts | 315° |
| 2026-04-28 18:45 | 16.22464 | 75.62241 | 33916 ft | 419 kts | 315° |
| 2026-04-28 18:45 | 16.40026 | 75.46364 | 33913 ft | 420 kts | 315° |
| 2026-04-28 18:46 | 16.57716 | 75.30341 | 33917 ft | 421 kts | 315° |
| 2026-04-28 18:46 | 16.75471 | 75.14197 | 33921 ft | 422 kts | 315° |
| 2026-04-28 18:47 | 16.93162 | 74.98086 | 33931 ft | 423 kts | 316° |
| 2026-04-28 18:47 | 17.10863 | 74.81936 | 33941 ft | 422 kts | 316° |
| 2026-04-28 18:48 | 17.19773 | 74.73782 | 33844 ft | 424 kts | 316° |
| 2026-04-28 18:48 | 17.21987 | 74.71750 | 33514 ft | 423 kts | 315° |
| 2026-04-28 18:48 | 17.24194 | 74.69725 | 32827 ft | 422 kts | 315° |
| 2026-04-28 18:49 | 17.26381 | 74.67723 | 32748 ft | 408 kts | 315° |
| 2026-04-28 18:49 | 17.27096 | 74.67069 | 32748 ft | 406 kts | 315° |
| 2026-04-28 18:49 | 17.30671 | 74.63794 | 32390 ft | 418 kts | 315° |
| 2026-04-28 18:49 | 17.32908 | 74.61735 | 32131 ft | 427 kts | 315° |
| 2026-04-28 18:50 | 17.35146 | 74.59676 | 31870 ft | 428 kts | 315° |
| 2026-04-28 18:50 | 17.37359 | 74.57645 | 31532 ft | 423 kts | 315° |
| 2026-04-28 18:50 | 17.39556 | 74.55628 | 30838 ft | 423 kts | 315° |
| 2026-04-28 18:50 | 17.41801 | 74.53567 | 30139 ft | 421 kts | 315° |
| 2026-04-28 18:51 | 17.43985 | 74.51560 | 29579 ft | 417 kts | 315° |
| 2026-04-28 18:51 | 17.46143 | 74.49577 | 28986 ft | 414 kts | 315° |
| 2026-04-28 18:51 | 17.48307 | 74.47587 | 28393 ft | 411 kts | 315° |
| 2026-04-28 18:51 | 17.50461 | 74.45606 | 27800 ft | 409 kts | 315° |
| 2026-04-28 18:52 | 17.52585 | 74.43651 | 27205 ft | 407 kts | 316° |
| 2026-04-28 18:52 | 17.54717 | 74.41688 | 26600 ft | 405 kts | 316° |
| 2026-04-28 18:52 | 17.56810 | 74.39759 | 26005 ft | 403 kts | 316° |
| 2026-04-28 18:52 | 17.59021 | 74.37947 | 25367 ft | 402 kts | 327° |
| 2026-04-28 18:53 | 17.61544 | 74.36734 | 24704 ft | 394 kts | 337° |
| 2026-04-28 18:53 | 17.64133 | 74.35799 | 23769 ft | 392 kts | 339° |
| 2026-04-28 18:53 | 17.66689 | 74.34907 | 22823 ft | 390 kts | 339° |
| 2026-04-28 18:53 | 17.69258 | 74.34018 | 21912 ft | 386 kts | 340° |
| 2026-04-28 18:54 | 17.71783 | 74.33143 | 21051 ft | 381 kts | 340° |
| 2026-04-28 18:54 | 17.74298 | 74.32269 | 20471 ft | 378 kts | 340° |
| 2026-04-28 18:54 | 17.76802 | 74.31396 | 19761 ft | 376 kts | 340° |
| 2026-04-28 18:54 | 17.79240 | 74.30542 | 19023 ft | 369 kts | 341° |
| 2026-04-28 18:55 | 17.81668 | 74.29689 | 18493 ft | 366 kts | 341° |
| 2026-04-28 18:55 | 17.83257 | 74.29131 | 18105 ft | 365 kts | 341° |
| 2026-04-28 18:55 | 17.86472 | 74.27998 | 17271 ft | 360 kts | 342° |
| 2026-04-28 18:55 | 17.88804 | 74.27176 | 16515 ft | 355 kts | 342° |
| 2026-04-28 18:56 | 17.91142 | 74.26354 | 15593 ft | 355 kts | 342° |
| 2026-04-28 18:56 | 17.93493 | 74.25528 | 14995 ft | 350 kts | 342° |
| 2026-04-28 18:56 | 17.95796 | 74.24720 | 14406 ft | 351 kts | 343° |
| 2026-04-28 18:56 | 17.98137 | 74.23898 | 13842 ft | 351 kts | 343° |
| 2026-04-28 18:57 | 18.00430 | 74.23093 | 13297 ft | 352 kts | 343° |
| 2026-04-28 18:57 | 18.02756 | 74.22276 | 12743 ft | 352 kts | 343° |
| 2026-04-28 18:57 | 18.05078 | 74.21460 | 12187 ft | 352 kts | 343° |
| 2026-04-28 18:57 | 18.07417 | 74.20637 | 11635 ft | 351 kts | 343° |
| 2026-04-28 18:58 | 18.09732 | 74.19823 | 11078 ft | 351 kts | 343° |
| 2026-04-28 18:58 | 18.12046 | 74.19009 | 10577 ft | 349 kts | 343° |
| 2026-04-28 18:58 | 18.14335 | 74.18201 | 10319 ft | 338 kts | 343° |
| 2026-04-28 18:58 | 18.16484 | 74.17439 | 10192 ft | 315 kts | 343° |
| 2026-04-28 18:59 | 18.18512 | 74.16721 | 10068 ft | 295 kts | 343° |
| 2026-04-28 18:59 | 18.20443 | 74.16040 | 9718 ft | 293 kts | 344° |
| 2026-04-28 18:59 | 18.22365 | 74.15367 | 9326 ft | 293 kts | 343° |
| 2026-04-28 18:59 | 18.24312 | 74.14683 | 8951 ft | 292 kts | 343° |
| 2026-04-28 19:00 | 18.26231 | 74.14009 | 8578 ft | 291 kts | 342° |
| 2026-04-28 19:00 | 18.28152 | 74.13329 | 8222 ft | 288 kts | 342° |
| 2026-04-28 19:00 | 18.30028 | 74.12666 | 7890 ft | 286 kts | 342° |
| 2026-04-28 19:00 | 18.31926 | 74.11994 | 7521 ft | 284 kts | 341° |
| 2026-04-28 19:01 | 18.33777 | 74.11353 | 7158 ft | 282 kts | 345° |
| 2026-04-28 19:01 | 18.35733 | 74.11128 | 6895 ft | 276 kts | 1° |
| 2026-04-28 19:01 | 18.37601 | 74.11286 | 6734 ft | 267 kts | 5° |
| 2026-04-28 19:01 | 18.39432 | 74.11523 | 6697 ft | 255 kts | 6° |
| 2026-04-28 19:02 | 18.41136 | 74.11764 | 6704 ft | 237 kts | 6° |
| 2026-04-28 19:02 | 18.42749 | 74.11993 | 6573 ft | 228 kts | 6° |
| 2026-04-28 19:02 | 18.44288 | 74.12219 | 6445 ft | 216 kts | 6° |
| 2026-04-28 19:02 | 18.45737 | 74.12441 | 6334 ft | 203 kts | 6° |
| 2026-04-28 19:03 | 18.47105 | 74.12656 | 6145 ft | 197 kts | 6° |
| 2026-04-28 19:03 | 18.48444 | 74.12874 | 5897 ft | 194 kts | 6° |
| 2026-04-28 19:03 | 18.49783 | 74.13085 | 5578 ft | 194 kts | 4° |
| 2026-04-28 19:03 | 18.51092 | 74.12896 | 5340 ft | 188 kts | 335° |
| 2026-04-28 19:04 | 18.52248 | 74.12244 | 5120 ft | 188 kts | 329° |
| 2026-04-28 19:04 | 18.53352 | 74.11576 | 5023 ft | 177 kts | 329° |
| 2026-04-28 19:04 | 18.54412 | 74.10929 | 4925 ft | 176 kts | 329° |
| 2026-04-28 19:04 | 18.55403 | 74.10166 | 4801 ft | 177 kts | 310° |
| 2026-04-28 19:05 | 18.56013 | 74.09087 | 4658 ft | 168 kts | 294° |
| 2026-04-28 19:05 | 18.56367 | 74.07934 | 4462 ft | 164 kts | 285° |
| 2026-04-28 19:05 | 18.56585 | 74.06750 | 4305 ft | 163 kts | 282° |
| 2026-04-28 19:05 | 18.56746 | 74.05586 | 4169 ft | 155 kts | 280° |
| 2026-04-28 19:06 | 18.56888 | 74.04498 | 3995 ft | 146 kts | 281° |
| 2026-04-28 19:06 | 18.56981 | 74.03790 | 3878 ft | 145 kts | 281° |
| 2026-04-28 19:06 | 18.57169 | 74.02384 | 3699 ft | 147 kts | 281° |
| 2026-04-28 19:06 | 18.57302 | 74.01327 | 3456 ft | 145 kts | 280° |
| 2026-04-28 19:07 | 18.57422 | 74.00287 | 3262 ft | 144 kts | 279° |
| 2026-04-28 19:07 | 18.57545 | 73.99228 | 3069 ft | 145 kts | 279° |
| 2026-04-28 19:07 | 18.57669 | 73.98184 | 2875 ft | 144 kts | 280° |
| 2026-04-28 19:07 | 18.57850 | 73.97126 | 2679 ft | 146 kts | 283° |
| 2026-04-28 19:08 | 18.57986 | 73.96069 | 2505 ft | 146 kts | 275° |
| 2026-04-28 19:08 | 18.58052 | 73.94995 | 2322 ft | 146 kts | 275° |
| 2026-04-28 19:08 | 18.58112 | 73.93934 | 2135 ft | 147 kts | 274° |
| 2026-04-28 19:08 | 18.58171 | 73.92847 | 1964 ft | 150 kts | 274° |
| 2026-04-28 19:09 | 18.58229 | 73.91908 | 1949 ft | 89 kts | 274° |
| 2026-04-28 19:09 | 18.58257 | 73.91450 | 1950 ft | 52 kts | 273° |
| 2026-04-28 19:09 | 18.58274 | 73.91158 | 1950 ft | 22 kts | 275° |
| 2026-04-28 19:09 | 18.58285 | 73.91010 | 1950 ft | 18 kts | 274° |
| 2026-04-28 19:10 | 18.58260 | 73.90951 | 1950 ft | 7 kts | 192° |
| 2026-04-28 19:10 | 18.58207 | 73.90944 | 1950 ft | 7 kts | 188° |
| 2026-04-28 19:10 | 18.58157 | 73.90934 | 1950 ft | 7 kts | 188° |
| 2026-04-28 19:10 | 18.58111 | 73.90927 | 1950 ft | 6 kts | 189° |
| 2026-04-28 19:11 | 18.58071 | 73.90923 | 1950 ft | 5 kts | 174° |
| 2026-04-28 19:11 | 18.58034 | 73.90923 | 1950 ft | 5 kts | 187° |
| 2026-04-28 19:11 | 18.58013 | 73.90921 | 1950 ft | 0 kts | 186° |
| 2026-04-28 19:11 | 18.58010 | 73.90920 | 1950 ft | 0 kts | 187° |